Aérodrome :
LOGIN :

S'inscrire | Disclaimer

   EN    FR    IT 

 










Légende :    VFR   VFR Marginal   IFR   IFR Intensif   IFR Très Intensif
Visi : 
Plafond : 
>= 8 km
>= 3000ft
5 à 8 km
1000 à 3000 ft
1500m à 5 km
500 à 1000 ft
800 à 1500m
200 à 500 ft
< 800m
< 200 ft
Symboles :   Orages  Brouillard  Fortes neiges  Fortes précipitations  Vent > 20 kt
SIGMETs :   Divers  Orages  Givrage  Turbulence  Onde Orograph.  Cendres Volcan.






- Altitude de l'aérodrome : 20 ft


EBFN - Koksijde

DERNIER METAR :
  • 080655Z AUTO 21019KT 9999 OVC011/// 10/08 Q1001 GRN

METARs EXPIRÉS :
  • 080625Z AUTO 21020KT 9999 OVC013/// 10/08 Q1002 GRN
  • 080555Z AUTO 21019KT 9999 OVC013/// 09/08 Q1002 GRN
  • 080525Z AUTO 21019KT 6000 -RA SCT014/// OVC075/// 09/08 Q1003 GRN
  • 080518Z AUTO 21018KT 7000 RA OVC074/// 09/08 Q1002 WHT
  • 080455Z AUTO 19019KT 6000 RA OVC048/// 09/07 Q1002 WHT
  • 080425Z AUTO 21016KT 8000 -RA SCT020/// OVC049/// 09/07 Q1004 WHT

TAF TAF EBFN
Valide du 08 à 07h jusqu'au 08 à 16h UTC


080541Z 0807/0816 20017G30KT 9999 BKN020 BKN050
TEMPO 0807/0809 6000 -RA/-SHRA FEW012 SCT015 OVC020
BECMG 0810/0812 22012KT 9999 FEW025
PROB30
TEMPO 0814/0816 6000 -SHRA SCT025



MET'MAP, la Météo Aéronautique d'un coup d'oeil ! - Copyright ORBIFLY Décembre 2007 - Disclaimer

ORBIFLY MET'MAP TEAM :

Programmation & Développement : Alexandra Zaïnal
Sur une idée originale de : Baudouin d'Aumeries
Assistance à la programmation : Marc-Olivier Méhu
Soutien technique & logistique : Manuel Goepfert

Contact : metmap@orbifly.com




SOURCES & CREDITS :

   NOAA